Time;durP1;ratioP1;P1;durP2;ratioP2;P2;SDS_P1;SDS_P2;PMS_P1;PMS_P2;Temp;Humidity;BMP_temperature;BMP_pressure;BME280_temperature;BME280_humidity;BME280_pressure;Samples;Min_cycle;Max_cycle;Signal;HPM_P1;HPM_P2
2022/01/31 00:02:17;;;;;;;10.02;3.92;;;4.00;99.90;;;;;;6097718;23;20454;-87
2022/01/31 00:04:43;;;;;;;26.00;5.95;;;3.90;99.90;;;;;;6073109;23;20494;-88
2022/01/31 00:07:10;;;;;;;5.97;2.55;;;3.90;99.90;;;;;;6073701;23;20021;-87
2022/01/31 00:09:36;;;;;;;13.43;2.05;;;4.00;99.90;;;;;;6074039;23;20699;-87
2022/01/31 00:12:08;;;;;;;21.70;4.50;;;3.90;99.90;;;;;;6097497;23;20081;-87
2022/01/31 00:16:59;;;;;;;7.85;2.92;;;3.90;99.90;;;;;;6098208;23;20354;-86
2022/01/31 00:19:25;;;;;;;7.68;2.75;;;3.90;99.90;;;;;;6073055;23;20041;-88
2022/01/31 00:21:51;;;;;;;18.08;4.13;;;3.90;99.90;;;;;;6069149;23;20028;-87
2022/01/31 00:24:16;;;;;;;6.18;2.10;;;3.90;99.90;;;;;;6097341;23;20006;-87
2022/01/31 00:26:42;;;;;;;11.52;3.72;;;3.90;99.90;;;;;;6073377;23;20546;-88
2022/01/31 00:29:07;;;;;;;8.32;2.55;;;3.90;99.90;;;;;;6073694;23;20017;-87
2022/01/31 00:31:33;;;;;;;26.05;3.38;;;3.90;99.90;;;;;;6073484;23;20020;-88
2022/01/31 00:33:58;;;;;;;8.50;2.42;;;3.90;99.90;;;;;;6072887;23;20354;-88
2022/01/31 00:36:24;;;;;;;17.13;2.88;;;4.00;99.90;;;;;;6071024;23;20025;-87
2022/01/31 00:38:49;;;;;;;12.32;2.80;;;4.00;99.90;;;;;;6073230;23;20033;-87
2022/01/31 00:41:15;;;;;;;8.98;3.33;;;4.00;99.90;;;;;;6096241;23;20037;-87
2022/01/31 00:43:43;;;;;;;13.43;2.70;;;4.00;99.90;;;;;;6071604;23;20009;-87
2022/01/31 00:46:12;;;;;;;13.50;2.63;;;4.00;99.90;;;;;;6074428;23;20398;-87
2022/01/31 00:48:44;;;;;;;18.63;4.68;;;4.00;99.90;;;;;;6074476;23;20009;-87
2022/01/31 00:51:10;;;;;;;16.25;2.53;;;4.00;99.90;;;;;;6099485;23;20537;-87
2022/01/31 00:53:35;;;;;;;16.52;3.60;;;3.90;99.90;;;;;;6061775;23;20014;-87
2022/01/31 00:56:01;;;;;;;4.43;1.88;;;4.00;99.90;;;;;;6074612;23;20110;-87
2022/01/31 00:58:26;;;;;;;22.90;5.05;;;4.00;99.90;;;;;;6097047;23;20013;-87
2022/01/31 01:00:52;;;;;;;7.95;1.88;;;4.00;99.90;;;;;;6072548;23;20014;-88
2022/01/31 01:03:18;;;;;;;10.20;2.50;;;4.00;99.90;;;;;;6072892;23;20005;-88
2022/01/31 01:05:43;;;;;;;8.25;3.38;;;4.10;99.90;;;;;;6074670;23;20032;-88
2022/01/31 01:08:09;;;;;;;10.32;2.85;;;4.10;99.90;;;;;;6076445;23;20086;-88
2022/01/31 01:10:34;;;;;;;9.38;3.13;;;4.10;99.90;;;;;;6100714;23;20523;-86
2022/01/31 01:13:00;;;;;;;6.30;1.88;;;4.10;99.90;;;;;;6075379;23;20351;-87
2022/01/31 01:15:25;;;;;;;4.88;1.88;;;4.10;99.90;;;;;;6076550;23;20435;-87
2022/01/31 01:17:51;;;;;;;8.23;2.65;;;4.20;99.90;;;;;;6076642;23;20411;-88
2022/01/31 01:20:16;;;;;;;6.35;2.63;;;4.10;99.90;;;;;;6073496;23;20002;-88
2022/01/31 01:22:43;;;;;;;10.07;2.58;;;4.10;99.90;;;;;;6076596;23;20018;-87
2022/01/31 01:25:10;;;;;;;10.68;2.72;;;4.10;99.90;;;;;;6076802;23;20013;-87
2022/01/31 01:27:36;;;;;;;8.90;2.58;;;4.10;99.90;;;;;;6071450;23;20534;-86
2022/01/31 01:30:03;;;;;;;11.27;3.15;;;4.10;99.90;;;;;;6076648;23;20020;-87
2022/01/31 01:32:34;;;;;;;8.40;3.08;;;4.10;99.90;;;;;;6076080;23;20020;-88
2022/01/31 01:35:03;;;;;;;6.45;1.63;;;4.10;99.90;;;;;;6075236;23;20032;-88
2022/01/31 01:37:29;;;;;;;3.42;1.85;;;4.20;99.90;;;;;;6063629;23;20019;-88
2022/01/31 01:39:54;;;;;;;6.00;2.17;;;4.10;99.90;;;;;;6100338;23;20116;-88
2022/01/31 01:42:20;;;;;;;9.55;2.03;;;4.10;99.90;;;;;;6075623;23;20217;-88
2022/01/31 01:44:47;;;;;;;12.65;3.17;;;4.10;99.90;;;;;;6100512;23;20021;-87
2022/01/31 01:47:16;;;;;;;4.53;2.35;;;4.10;99.90;;;;;;6099944;23;20469;-87
2022/01/31 01:49:42;;;;;;;10.90;2.47;;;4.10;99.90;;;;;;6100298;23;20325;-87
2022/01/31 01:52:09;;;;;;;7.53;2.17;;;4.20;99.90;;;;;;6087513;23;20020;-87
2022/01/31 01:54:35;;;;;;;11.63;2.15;;;4.20;99.90;;;;;;6077299;23;20010;-88
2022/01/31 01:57:02;;;;;;;8.77;2.75;;;4.20;99.90;;;;;;6076275;23;20012;-88
2022/01/31 01:59:28;;;;;;;5.63;1.30;;;4.20;99.90;;;;;;6073577;23;20369;-87
2022/01/31 02:01:53;;;;;;;6.53;2.67;;;4.20;99.90;;;;;;6075250;23;20021;-88
2022/01/31 02:04:19;;;;;;;5.05;1.65;;;4.20;99.90;;;;;;6075326;23;20013;-87
2022/01/31 02:06:45;;;;;;;13.48;2.80;;;4.20;99.90;;;;;;6074273;23;20025;-88
2022/01/31 02:09:11;;;;;;;11.65;2.40;;;4.20;99.90;;;;;;6076326;23;20021;-87
2022/01/31 02:11:36;;;;;;;11.68;3.15;;;4.20;99.90;;;;;;6076782;23;20013;-87
2022/01/31 02:14:03;;;;;;;9.07;2.33;;;4.20;99.90;;;;;;6075170;23;20331;-87
2022/01/31 02:16:28;;;;;;;7.32;1.90;;;4.10;99.90;;;;;;6075224;23;20079;-87
2022/01/31 02:18:55;;;;;;;7.93;2.50;;;4.20;99.90;;;;;;6074356;23;20014;-87
2022/01/31 02:21:20;;;;;;;8.50;2.08;;;4.20;99.90;;;;;;6097700;23;20459;-87
2022/01/31 02:23:46;;;;;;;6.47;2.50;;;4.20;99.90;;;;;;6074656;23;20060;-87
2022/01/31 02:26:11;;;;;;;8.70;1.63;;;4.20;99.90;;;;;;6075269;23;20005;-87
2022/01/31 02:28:39;;;;;;;11.23;3.15;;;4.20;99.90;;;;;;6073715;23;20005;-87
2022/01/31 02:31:05;;;;;;;14.82;3.55;;;4.10;99.90;;;;;;6074554;23;20005;-87
2022/01/31 02:33:31;;;;;;;16.00;3.40;;;4.10;99.90;;;;;;6074234;23;20473;-87
2022/01/31 02:35:58;;;;;;;10.90;2.78;;;4.00;99.90;;;;;;6072483;23;20017;-87
2022/01/31 02:38:24;;;;;;;7.22;2.22;;;4.00;99.90;;;;;;6071004;23;20006;-87
2022/01/31 02:40:50;;;;;;;11.45;3.05;;;3.90;99.90;;;;;;6074103;23;20100;-87
2022/01/31 02:43:19;;;;;;;9.30;1.65;;;3.90;99.90;;;;;;6070740;23;20014;-87
2022/01/31 02:45:45;;;;;;;13.90;2.50;;;3.90;99.90;;;;;;6122809;23;20127;-87
2022/01/31 02:48:12;;;;;;;9.90;2.88;;;3.90;99.90;;;;;;6073439;23;20017;-86
2022/01/31 02:50:39;;;;;;;7.85;1.90;;;3.90;99.90;;;;;;6095436;23;20010;-86
2022/01/31 02:53:13;;;;;;;13.35;2.45;;;3.80;99.90;;;;;;6097559;23;20438;-86
2022/01/31 02:55:40;;;;;;;8.05;2.97;;;3.80;99.90;;;;;;6077515;23;20463;-86
2022/01/31 02:58:06;;;;;;;6.07;2.63;;;3.80;99.90;;;;;;6074615;23;20013;-86
2022/01/31 03:00:31;;;;;;;4.60;1.63;;;3.80;99.90;;;;;;6073167;23;20093;-86
2022/01/31 03:02:57;;;;;;;11.98;3.03;;;3.70;99.90;;;;;;6073115;23;20474;-86
2022/01/31 03:05:22;;;;;;;15.77;3.35;;;3.70;99.90;;;;;;6072968;23;20002;-86
2022/01/31 03:07:48;;;;;;;12.15;2.10;;;3.60;99.90;;;;;;6073991;23;20092;-86
2022/01/31 03:10:13;;;;;;;9.23;1.90;;;3.60;99.90;;;;;;6072857;23;20068;-85
2022/01/31 03:12:39;;;;;;;7.07;2.25;;;3.60;99.90;;;;;;6072281;23;20072;-86
2022/01/31 03:15:04;;;;;;;6.57;2.72;;;3.60;99.90;;;;;;6073006;23;20068;-86
2022/01/31 03:17:30;;;;;;;8.68;2.10;;;3.60;99.90;;;;;;6097744;23;20018;-86
2022/01/31 03:19:55;;;;;;;9.43;3.13;;;3.50;99.90;;;;;;6073622;23;20021;-86
2022/01/31 03:22:22;;;;;;;16.42;3.22;;;3.60;99.90;;;;;;6073610;23;20032;-86
2022/01/31 03:24:48;;;;;;;1.77;1.08;;;3.50;99.90;;;;;;6074496;23;20037;-86
2022/01/31 03:27:14;;;;;;;8.50;2.55;;;3.50;99.90;;;;;;6072835;23;20021;-85
2022/01/31 03:29:40;;;;;;;1.90;1.50;;;3.50;99.90;;;;;;6096233;23;20020;-86
2022/01/31 03:32:06;;;;;;;10.73;3.95;;;3.40;99.90;;;;;;6072342;23;20343;-85
2022/01/31 03:34:32;;;;;;;10.93;2.35;;;3.40;99.90;;;;;;6072832;23;20409;-86
2022/01/31 03:36:57;;;;;;;2.47;2.25;;;3.50;99.90;;;;;;6073209;23;20085;-86
2022/01/31 03:39:23;;;;;;;8.35;1.92;;;3.40;99.90;;;;;;6073481;23;20029;-86
2022/01/31 03:41:48;;;;;;;11.20;2.75;;;3.40;99.90;;;;;;6072538;23;20071;-86
2022/01/31 03:44:14;;;;;;;2.70;1.52;;;3.40;99.90;;;;;;6071396;23;20006;-85
2022/01/31 03:46:39;;;;;;;10.02;2.22;;;3.40;99.90;;;;;;6074117;23;20017;-86
2022/01/31 03:49:13;;;;;;;7.75;1.85;;;3.50;99.90;;;;;;6073323;23;20267;-86
2022/01/31 03:51:38;;;;;;;5.03;1.27;;;3.40;99.90;;;;;;6080947;23;20021;-89
2022/01/31 03:54:04;;;;;;;3.83;1.73;;;3.50;99.90;;;;;;6077291;23;20450;-89
2022/01/31 03:56:32;;;;;;;8.15;2.13;;;3.50;99.90;;;;;;6107130;23;20006;-88
2022/01/31 03:58:57;;;;;;;7.00;3.05;;;3.50;99.90;;;;;;6080786;23;20017;-90
2022/01/31 04:01:23;;;;;;;4.53;1.98;;;3.50;99.90;;;;;;6061424;23;20024;-90
2022/01/31 04:03:49;;;;;;;4.47;1.58;;;3.50;99.90;;;;;;6079324;23;20071;-89
2022/01/31 04:06:15;;;;;;;5.63;1.50;;;3.60;99.90;;;;;;6081025;23;20329;-89
2022/01/31 04:08:40;;;;;;;4.85;2.20;;;3.60;99.90;;;;;;6078766;23;20448;-89
2022/01/31 04:11:06;;;;;;;3.90;1.40;;;3.60;99.90;;;;;;6077810;23;20386;-89
2022/01/31 04:13:31;;;;;;;3.95;1.58;;;3.60;99.90;;;;;;6101040;23;20049;-89
2022/01/31 04:15:57;;;;;;;4.18;1.50;;;3.60;99.90;;;;;;6079876;23;20080;-89
2022/01/31 04:18:22;;;;;;;5.65;1.80;;;3.60;99.90;;;;;;6080198;23;20439;-89
2022/01/31 04:20:48;;;;;;;7.28;2.50;;;3.70;99.90;;;;;;6081739;23;20006;-89
2022/01/31 04:23:17;;;;;;;5.53;3.00;;;3.80;99.90;;;;;;6080858;23;20017;-89
2022/01/31 04:25:45;;;;;;;5.57;2.70;;;3.70;99.90;;;;;;6083334;23;20044;-90
2022/01/31 04:28:27;;;;;;;7.35;3.30;;;3.70;99.90;;;;;;6079957;23;20013;-90
2022/01/31 04:31:00;;;;;;;6.70;2.42;;;3.70;99.90;;;;;;6087418;23;20088;-89
2022/01/31 04:33:26;;;;;;;7.60;3.20;;;3.80;99.90;;;;;;6083741;23;20419;-89
2022/01/31 04:35:52;;;;;;;8.65;3.33;;;3.80;99.90;;;;;;6080120;23;20029;-89
2022/01/31 04:38:18;;;;;;;8.48;2.75;;;3.80;99.90;;;;;;6081399;23;20141;-90
2022/01/31 04:40:44;;;;;;;9.02;4.10;;;3.90;99.90;;;;;;6076895;23;20014;-89
2022/01/31 04:43:10;;;;;;;4.78;3.10;;;3.80;99.90;;;;;;6079451;23;20315;-90
2022/01/31 04:45:36;;;;;;;7.47;3.20;;;3.90;99.90;;;;;;6080182;23;20005;-89
2022/01/31 04:48:01;;;;;;;8.93;4.57;;;3.90;99.90;;;;;;6067359;23;20228;-89
2022/01/31 04:50:29;;;;;;;9.93;5.53;;;3.90;99.90;;;;;;6066175;23;20483;-89
2022/01/31 04:52:55;;;;;;;9.00;4.53;;;4.00;99.90;;;;;;6077840;23;20033;-90
2022/01/31 04:55:20;;;;;;;4.88;2.72;;;4.00;99.90;;;;;;6076716;23;20006;-90
2022/01/31 04:57:46;;;;;;;10.43;4.35;;;4.00;99.90;;;;;;6076660;23;20025;-89
2022/01/31 05:00:12;;;;;;;11.85;5.18;;;4.10;99.90;;;;;;6073875;23;20013;-89
2022/01/31 05:02:38;;;;;;;9.00;3.25;;;4.10;99.90;;;;;;6078603;23;20459;-90
2022/01/31 05:05:04;;;;;;;10.93;4.57;;;4.10;99.90;;;;;;6101652;23;20018;-90
2022/01/31 05:07:30;;;;;;;7.82;3.83;;;4.10;99.90;;;;;;6078482;23;20032;-89
2022/01/31 05:09:55;;;;;;;9.13;5.00;;;4.20;99.90;;;;;;6077843;23;20014;-90
2022/01/31 05:12:22;;;;;;;7.88;2.97;;;4.20;99.90;;;;;;6075114;23;20017;-89
2022/01/31 05:14:50;;;;;;;7.70;4.13;;;4.20;99.90;;;;;;6079103;23;20395;-90
2022/01/31 05:17:15;;;;;;;12.18;5.47;;;4.20;99.90;;;;;;6102826;23;20061;-89
2022/01/31 05:19:41;;;;;;;8.82;3.75;;;4.20;99.90;;;;;;6078645;23;20021;-90
2022/01/31 05:22:07;;;;;;;9.93;3.22;;;4.30;99.90;;;;;;6079881;23;20018;-90
2022/01/31 05:24:32;;;;;;;10.32;3.95;;;4.30;99.90;;;;;;6103600;23;20458;-89
2022/01/31 05:26:58;;;;;;;7.38;4.30;;;4.30;99.90;;;;;;6078634;23;20379;-90
2022/01/31 05:29:23;;;;;;;18.20;7.40;;;4.30;99.90;;;;;;6077556;23;20021;-91
2022/01/31 05:31:49;;;;;;;11.73;5.57;;;4.30;99.90;;;;;;6103940;23;20070;-90
2022/01/31 05:34:15;;;;;;;14.45;5.78;;;4.40;99.90;;;;;;6075859;23;20069;-90
2022/01/31 05:36:41;;;;;;;7.70;3.08;;;4.40;99.90;;;;;;6101859;23;20149;-90
2022/01/31 05:39:07;;;;;;;11.88;4.68;;;4.30;99.90;;;;;;6080719;23;20431;-90
2022/01/31 05:41:32;;;;;;;14.30;4.93;;;4.40;99.90;;;;;;6082346;23;20045;-90
2022/01/31 05:43:58;;;;;;;10.80;3.20;;;4.40;99.90;;;;;;6085484;23;20364;-90
2022/01/31 05:46:23;;;;;;;18.33;6.32;;;4.40;99.90;;;;;;6083646;23;20443;-90
2022/01/31 05:48:52;;;;;;;11.65;5.85;;;4.40;99.90;;;;;;6069624;23;20002;-90
2022/01/31 05:51:20;;;;;;;16.13;4.40;;;4.50;99.90;;;;;;6080899;23;20013;-90
2022/01/31 05:53:47;;;;;;;11.85;3.90;;;4.50;99.90;;;;;;6077065;23;20017;-88
2022/01/31 05:56:13;;;;;;;7.75;3.35;;;4.50;99.90;;;;;;6078670;23;20010;-89
2022/01/31 05:58:38;;;;;;;8.27;3.85;;;4.50;99.90;;;;;;6076905;23;20009;-90
2022/01/31 06:01:04;;;;;;;14.50;5.13;;;4.50;99.90;;;;;;6080471;23;20006;-90
2022/01/31 06:03:30;;;;;;;11.82;4.43;;;4.50;99.90;;;;;;6080995;23;20010;-90
2022/01/31 06:05:55;;;;;;;5.43;2.60;;;4.50;99.90;;;;;;6097284;23;20019;-90
2022/01/31 06:08:21;;;;;;;14.38;4.43;;;4.60;99.90;;;;;;6134532;23;20017;-89
2022/01/31 06:10:48;;;;;;;13.40;3.80;;;4.60;99.90;;;;;;6087673;23;20085;-90
2022/01/31 06:13:23;;;;;;;10.07;2.63;;;4.60;99.90;;;;;;6088935;23;20037;-90
2022/01/31 06:15:48;;;;;;;8.45;3.33;;;4.60;99.90;;;;;;6097316;23;20013;-89
2022/01/31 06:18:14;;;;;;;7.53;2.67;;;4.60;99.90;;;;;;6077256;23;20017;-90
2022/01/31 06:20:40;;;;;;;13.70;3.85;;;4.60;99.90;;;;;;6086359;23;20069;-88
2022/01/31 06:23:06;;;;;;;11.52;2.92;;;4.60;99.90;;;;;;6115449;23;20049;-89
2022/01/31 06:25:32;;;;;;;4.00;2.35;;;4.60;99.90;;;;;;6089892;23;20074;-89
2022/01/31 06:27:58;;;;;;;11.38;2.58;;;4.70;99.90;;;;;;6089229;23;19996;-89
2022/01/31 06:30:24;;;;;;;5.22;2.15;;;4.80;99.90;;;;;;6091804;23;20013;-90
2022/01/31 06:32:54;;;;;;;7.10;2.25;;;4.70;99.90;;;;;;6077685;23;20018;-89
2022/01/31 06:35:20;;;;;;;9.63;2.63;;;4.70;99.90;;;;;;6068022;23;20014;-89
2022/01/31 06:37:46;;;;;;;10.88;2.70;;;4.70;99.90;;;;;;6055517;23;20446;-88
2022/01/31 06:40:12;;;;;;;5.57;2.13;;;4.70;99.90;;;;;;6058198;23;20017;-90
2022/01/31 06:43:18;;;;;;;10.98;3.63;;;4.70;99.90;;;;;;6090885;23;20017;-92
2022/01/31 06:50:31;;;;;;;;;;;;;;;;;;;;;
2022/01/31 06:53:34;;;;;;;6.00;1.83;;;4.70;99.90;;;;;;5777831;24;20194;-92
2022/01/31 06:56:05;;;;;;;10.05;2.50;;;4.70;99.90;;;;;;5890470;23;20011;-90
2022/01/31 06:58:41;;;;;;;20.48;3.50;;;4.60;99.90;;;;;;5957704;23;20458;-90
2022/01/31 07:01:16;;;;;;;15.45;2.88;;;4.70;99.90;;;;;;6015811;23;20062;-92
2022/01/31 07:03:42;;;;;;;12.80;2.20;;;4.60;99.90;;;;;;6023826;23;20019;-91
2022/01/31 07:06:12;;;;;;;4.97;1.33;;;4.60;99.90;;;;;;5997472;23;20089;-91
2022/01/31 07:08:41;;;;;;;8.55;1.05;;;4.60;99.90;;;;;;6013294;23;20045;-90
2022/01/31 07:11:15;;;;;;;3.60;1.42;;;4.40;99.90;;;;;;6057981;23;20046;-92
2022/01/31 07:13:42;;;;;;;6.20;1.48;;;4.40;99.90;;;;;;6053608;23;20040;-92
2022/01/31 07:16:28;;;;;;;6.55;1.95;;;4.20;99.90;;;;;;6021389;23;20368;-93
2022/01/31 07:19:03;;;;;;;;;;;4.20;99.90;;;;;;6051653;23;20115;-91
2022/01/31 07:21:36;;;;;;;2.30;1.05;;;4.20;99.90;;;;;;6092311;23;19944;-92
2022/01/31 07:42:17;;;;;;;2.50;1.15;;;4.10;99.90;;;;;;6147702;23;20025;-92
2022/01/31 07:44:42;;;;;;;2.53;0.80;;;4.10;99.90;;;;;;6094833;23;20009;-91
2022/01/31 07:47:15;;;;;;;4.20;1.60;;;4.10;99.90;;;;;;6071821;23;20029;-91
2022/01/31 07:49:43;;;;;;;6.03;1.60;;;4.30;99.90;;;;;;6085691;23;20065;-91
2022/01/31 07:52:57;;;;;;;5.15;2.17;;;4.10;99.90;;;;;;6129738;23;20013;-91
2022/01/31 07:55:23;;;;;;;7.30;1.35;;;4.10;99.90;;;;;;6178785;23;20049;-92
2022/01/31 07:57:49;;;;;;;1.95;0.98;;;4.10;99.90;;;;;;6126228;23;20022;-91
2022/01/31 08:00:15;;;;;;;7.85;2.10;;;4.10;99.90;;;;;;6138643;23;20457;-91
2022/01/31 08:02:41;;;;;;;10.35;3.03;;;4.10;99.90;;;;;;6095516;23;20029;-91
2022/01/31 08:05:07;;;;;;;6.38;1.67;;;4.10;99.90;;;;;;6105974;23;20080;-92
2022/01/31 08:07:35;;;;;;;10.57;2.35;;;4.10;99.90;;;;;;6108877;23;20510;-92
2022/01/31 08:10:02;;;;;;;2.47;1.17;;;4.10;99.90;;;;;;6092136;23;20029;-90
2022/01/31 08:12:28;;;;;;;2.60;1.77;;;4.10;99.90;;;;;;6108873;23;20009;-91
2022/01/31 08:15:01;;;;;;;5.68;2.03;;;4.00;99.90;;;;;;6108689;23;20009;-90
2022/01/31 08:17:26;;;;;;;7.53;2.50;;;4.20;99.90;;;;;;6111272;23;20096;-90
2022/01/31 08:19:52;;;;;;;5.60;2.58;;;4.10;99.90;;;;;;6110460;23;20548;-91
2022/01/31 08:22:27;;;;;;;9.32;3.30;;;4.10;99.90;;;;;;6123184;23;20020;-92
2022/01/31 08:24:53;;;;;;;8.63;1.40;;;4.10;99.90;;;;;;6108957;23;20013;-92
2022/01/31 08:27:19;;;;;;;6.55;2.10;;;4.00;99.90;;;;;;6109153;23;20284;-91
2022/01/31 08:29:45;;;;;;;4.18;1.42;;;4.10;99.90;;;;;;6109969;23;20526;-92
2022/01/31 08:32:18;;;;;;;4.85;1.95;;;4.10;99.90;;;;;;6085753;23;20099;-92
2022/01/31 08:37:28;;;;;;;9.52;2.75;;;4.20;99.90;;;;;;6145548;23;20020;-91
2022/01/31 08:39:54;;;;;;;8.38;2.85;;;4.10;99.90;;;;;;6105897;23;20017;-91
2022/01/31 08:42:19;;;;;;;8.27;2.47;;;4.10;99.90;;;;;;6092012;23;20064;-91
2022/01/31 08:44:46;;;;;;;5.95;2.85;;;4.10;99.90;;;;;;6131443;23;20013;-90
2022/01/31 08:47:12;;;;;;;18.05;3.78;;;4.10;99.90;;;;;;6106110;23;20017;-91
2022/01/31 08:49:38;;;;;;;15.32;3.50;;;4.10;99.90;;;;;;6134480;23;20012;-91
2022/01/31 08:52:04;;;;;;;5.60;1.83;;;4.20;99.90;;;;;;6113876;23;20017;-91
2022/01/31 08:54:38;;;;;;;10.73;3.75;;;4.10;99.90;;;;;;6092074;23;20026;-90
2022/01/31 08:57:04;;;;;;;10.25;2.72;;;4.10;99.90;;;;;;6136544;23;20029;-90
2022/01/31 08:59:32;;;;;;;8.70;2.50;;;4.10;99.90;;;;;;6102772;23;20013;-92
2022/01/31 09:02:25;;;;;;;6.25;1.95;;;4.20;99.90;;;;;;6169941;23;20083;-90
2022/01/31 09:04:51;;;;;;;10.10;3.10;;;4.20;99.90;;;;;;6138664;23;20005;-90
2022/01/31 09:07:21;;;;;;;8.32;2.45;;;4.20;99.90;;;;;;6124769;23;20017;-90
2022/01/31 09:09:53;;;;;;;5.07;2.38;;;4.20;99.90;;;;;;6110469;23;20017;-90
2022/01/31 09:12:20;;;;;;;6.90;2.05;;;4.20;99.90;;;;;;6124335;23;19997;-91
2022/01/31 09:14:47;;;;;;;7.68;2.63;;;4.20;99.90;;;;;;6119676;23;20028;-89
2022/01/31 09:17:13;;;;;;;6.78;2.28;;;4.20;99.90;;;;;;6118630;23;20024;-91
2022/01/31 09:19:38;;;;;;;7.57;2.15;;;4.20;99.90;;;;;;6117853;23;20255;-89
2022/01/31 09:22:05;;;;;;;7.60;2.00;;;4.20;99.90;;;;;;6117069;23;20402;-87
2022/01/31 09:24:37;;;;;;;7.55;1.70;;;4.20;99.90;;;;;;6117615;23;20088;-90
2022/01/31 09:27:03;;;;;;;9.07;1.95;;;4.30;99.90;;;;;;6120853;23;20023;-92
2022/01/31 09:29:32;;;;;;;9.57;1.85;;;4.30;99.90;;;;;;6096556;23;20012;-91
2022/01/31 09:32:00;;;;;;;16.88;3.35;;;4.20;99.90;;;;;;6119897;23;20482;-91
2022/01/31 09:34:26;;;;;;;11.73;3.53;;;4.20;99.90;;;;;;6138387;23;20562;-90
2022/01/31 09:36:52;;;;;;;11.13;3.47;;;4.30;99.90;;;;;;6084970;23;20093;-91
2022/01/31 09:39:24;;;;;;;15.45;1.58;;;4.30;99.90;;;;;;6128614;23;20005;-90
2022/01/31 09:41:54;;;;;;;14.75;2.60;;;4.30;99.90;;;;;;6095467;23;20087;-91
2022/01/31 09:44:37;;;;;;;9.48;2.35;;;4.30;99.90;;;;;;6134124;23;20354;-89
2022/01/31 09:47:21;;;;;;;12.55;3.92;;;4.30;99.90;;;;;;6111124;23;20020;-89
2022/01/31 09:49:50;;;;;;;5.80;1.85;;;4.30;99.90;;;;;;6102672;23;20016;-89
2022/01/31 09:52:16;;;;;;;10.23;2.35;;;4.30;99.90;;;;;;6135000;23;20473;-90
2022/01/31 09:54:42;;;;;;;5.22;1.77;;;4.30;99.90;;;;;;6110930;23;20102;-91
2022/01/31 09:57:08;;;;;;;10.38;1.67;;;4.40;99.90;;;;;;6112671;23;20013;-89
2022/01/31 09:59:34;;;;;;;18.05;3.03;;;4.40;99.90;;;;;;6108336;23;20009;-89
2022/01/31 10:02:11;;;;;;;10.32;2.67;;;4.40;99.90;;;;;;6107409;23;20214;-89
2022/01/31 10:04:38;;;;;;;13.85;3.75;;;4.40;99.90;;;;;;6074360;23;20445;-90
2022/01/31 10:07:04;;;;;;;9.13;2.20;;;4.40;99.90;;;;;;6108487;23;20012;-90
2022/01/31 10:09:31;;;;;;;5.97;2.72;;;4.40;99.90;;;;;;6111153;23;20135;-89
2022/01/31 10:12:06;;;;;;;10.80;2.45;;;4.40;99.90;;;;;;6111260;23;20021;-91
2022/01/31 10:17:42;;;;;;;10.32;2.00;;;4.40;99.90;;;;;;6123422;23;20069;-90
2022/01/31 10:20:25;;;;;;;6.55;1.40;;;4.40;99.90;;;;;;6139530;23;20013;-88
2022/01/31 10:22:58;;;;;;;10.95;2.63;;;4.50;99.90;;;;;;6113396;23;20025;-91
2022/01/31 10:25:24;;;;;;;10.98;2.22;;;4.50;99.90;;;;;;6102935;23;20020;-90
2022/01/31 10:27:54;;;;;;;14.45;2.45;;;4.50;99.90;;;;;;6132616;23;20393;-90
2022/01/31 10:30:23;;;;;;;16.95;3.17;;;4.60;99.90;;;;;;6112743;23;20082;-88
2022/01/31 10:32:54;;;;;;;10.98;2.83;;;4.50;99.90;;;;;;6095730;23;20009;-90
2022/01/31 10:35:24;;;;;;;14.60;4.05;;;4.50;99.90;;;;;;6105557;23;20021;-90
2022/01/31 10:38:00;;;;;;;9.93;2.67;;;4.60;99.90;;;;;;6139758;23;20043;-87
2022/01/31 10:56:44;;;;;;;18.33;3.75;;;4.70;99.90;;;;;;6131405;23;20013;-90
2022/01/31 10:59:19;;;;;;;20.33;3.47;;;4.70;99.90;;;;;;6107773;23;20096;-90
2022/01/31 11:01:50;;;;;;;11.20;2.95;;;4.70;99.90;;;;;;6130699;23;20017;-91
2022/01/31 11:04:15;;;;;;;13.07;2.33;;;4.70;99.90;;;;;;6106115;23;20012;-90
2022/01/31 11:06:43;;;;;;;22.55;3.90;;;4.70;99.90;;;;;;6106457;23;20017;-90
2022/01/31 11:09:13;;;;;;;20.15;5.20;;;4.70;99.90;;;;;;6109440;23;20027;-91
2022/01/31 11:11:42;;;;;;;20.98;5.10;;;4.80;99.90;;;;;;6108159;23;20035;-91
2022/01/31 11:14:17;;;;;;;20.75;5.57;;;4.70;99.90;;;;;;6142972;23;20081;-89
2022/01/31 11:16:44;;;;;;;23.38;2.85;;;4.70;99.90;;;;;;6111945;23;20017;-88
2022/01/31 11:19:15;;;;;;;10.27;2.22;;;4.80;99.90;;;;;;6094693;23;20009;-91
2022/01/31 11:21:44;;;;;;;15.43;3.03;;;4.80;99.90;;;;;;6038255;23;20100;-89
2022/01/31 11:24:19;;;;;;;13.63;2.50;;;4.80;99.90;;;;;;6111005;23;20345;-90
2022/01/31 11:26:56;;;;;;;10.07;2.35;;;4.80;99.90;;;;;;6109151;23;20096;-89
2022/01/31 11:29:32;;;;;;;16.30;2.53;;;4.90;99.90;;;;;;6101551;23;20025;-89
2022/01/31 11:32:02;;;;;;;18.38;2.10;;;4.90;99.90;;;;;;6096738;23;20019;-90
2022/01/31 11:34:34;;;;;;;10.75;1.98;;;4.90;99.90;;;;;;6100350;23;20088;-90
2022/01/31 11:37:12;;;;;;;12.50;2.45;;;5.00;99.90;;;;;;6072505;23;20026;-89
2022/01/31 11:39:38;;;;;;;15.13;3.28;;;4.90;99.90;;;;;;6125064;23;20012;-90
2022/01/31 11:42:29;;;;;;;10.85;2.45;;;4.90;99.90;;;;;;6115858;23;20445;-89
2022/01/31 11:45:23;;;;;;;15.40;2.65;;;5.00;99.90;;;;;;6065538;23;20275;-91
2022/01/31 11:48:15;;;;;;;19.42;2.80;;;5.00;99.90;;;;;;6135246;23;20064;-88
2022/01/31 11:50:48;;;;;;;15.10;3.00;;;5.00;99.90;;;;;;6088597;23;20014;-89
2022/01/31 11:53:14;;;;;;;15.50;2.97;;;4.90;99.90;;;;;;6134944;23;20024;-90
2022/01/31 11:55:49;;;;;;;14.98;2.20;;;5.00;99.90;;;;;;6074021;23;20017;-89
2022/01/31 11:58:18;;;;;;;18.17;3.22;;;5.00;99.90;;;;;;6104261;23;20005;-90
2022/01/31 12:00:46;;;;;;;23.70;4.18;;;5.00;99.90;;;;;;6123558;23;20583;-90
2022/01/31 12:03:14;;;;;;;24.30;4.28;;;5.00;99.90;;;;;;6104893;23;20537;-90
2022/01/31 12:05:41;;;;;;;31.25;3.70;;;5.10;99.90;;;;;;6105011;23;20214;-90
2022/01/31 12:08:08;;;;;;;28.30;3.72;;;5.10;99.90;;;;;;6103557;23;20005;-91
2022/01/31 12:10:41;;;;;;;34.72;4.22;;;5.10;99.90;;;;;;6104784;23;20009;-90
2022/01/31 12:14:00;;;;;;;17.35;1.90;;;5.10;99.90;;;;;;6107118;23;20024;-90
2022/01/31 12:22:00;;;;;;;18.88;2.33;;;5.10;99.90;;;;;;6177640;23;20075;-91
2022/01/31 12:24:38;;;;;;;9.75;2.35;;;5.10;99.90;;;;;;6104694;23;20083;-89
2022/01/31 12:27:21;;;;;;;19.00;3.67;;;5.20;99.90;;;;;;6152688;23;20111;-90
2022/01/31 12:29:52;;;;;;;15.00;2.58;;;5.20;99.90;;;;;;6104663;23;20012;-88
2022/01/31 12:32:33;;;;;;;16.02;3.15;;;5.20;99.90;;;;;;6129571;23;20020;-89
2022/01/31 12:35:08;;;;;;;22.10;4.82;;;5.20;99.90;;;;;;6106348;23;20071;-89
2022/01/31 12:37:36;;;;;;;11.38;2.78;;;5.20;99.90;;;;;;6128749;23;20058;-89
2022/01/31 12:40:14;;;;;;;15.07;2.60;;;5.30;99.90;;;;;;6104651;23;20067;-91
2022/01/31 12:42:56;;;;;;;24.00;5.10;;;5.20;99.90;;;;;;6089524;23;20029;-91
2022/01/31 12:45:31;;;;;;;14.00;2.53;;;5.30;99.90;;;;;;6130514;23;20016;-91
2022/01/31 12:48:12;;;;;;;9.95;1.88;;;5.30;99.90;;;;;;6103135;23;20051;-91
2022/01/31 12:50:45;;;;;;;10.68;2.03;;;5.30;99.90;;;;;;6151477;23;20492;-91
2022/01/31 12:53:23;;;;;;;15.75;2.92;;;5.30;99.90;;;;;;6131112;23;20389;-90
2022/01/31 12:56:06;;;;;;;10.25;2.35;;;5.30;99.90;;;;;;6152560;23;20017;-89
2022/01/31 12:58:44;;;;;;;16.13;3.00;;;5.30;99.90;;;;;;6129826;23;20039;-90
2022/01/31 13:01:13;;;;;;;14.75;3.33;;;5.30;99.90;;;;;;6106351;23;20013;-92
2022/01/31 13:03:40;;;;;;;13.30;4.00;;;5.30;99.90;;;;;;6128242;23;20031;-91
2022/01/31 13:06:25;;;;;;;9.40;2.53;;;5.30;99.90;;;;;;6128282;23;20013;-90
2022/01/31 13:08:52;;;;;;;21.00;4.35;;;5.30;99.90;;;;;;6152331;23;20288;-91
2022/01/31 13:11:18;;;;;;;14.80;5.10;;;5.30;99.90;;;;;;6106054;23;20024;-91
2022/01/31 13:13:44;;;;;;;10.13;2.92;;;5.30;99.90;;;;;;6101843;23;20012;-89
2022/01/31 13:16:10;;;;;;;18.52;5.72;;;5.30;99.90;;;;;;6102833;23;20438;-90
2022/01/31 13:18:36;;;;;;;9.68;3.58;;;5.30;99.90;;;;;;6123010;23;20009;-91
2022/01/31 13:21:04;;;;;;;19.92;5.88;;;5.30;99.90;;;;;;6102880;23;20017;-90
2022/01/31 13:23:33;;;;;;;10.35;4.82;;;5.20;99.90;;;;;;6124593;23;20339;-90
2022/01/31 13:26:06;;;;;;;13.02;4.47;;;5.20;99.90;;;;;;6102601;23;20466;-92
2022/01/31 13:28:32;;;;;;;13.00;4.47;;;5.20;99.90;;;;;;6101830;23;20521;-89
2022/01/31 13:31:07;;;;;;;17.52;4.28;;;5.20;99.90;;;;;;6122528;23;20023;-92
2022/01/31 13:33:44;;;;;;;12.60;4.97;;;5.20;99.90;;;;;;6100413;23;20096;-90
2022/01/31 13:36:10;;;;;;;22.48;6.80;;;5.20;99.90;;;;;;6101073;23;20508;-91
2022/01/31 13:38:36;;;;;;;15.25;5.70;;;5.20;99.90;;;;;;6098837;23;20009;-90
2022/01/31 13:41:03;;;;;;;19.55;5.65;;;5.20;99.90;;;;;;6099952;23;20016;-92
2022/01/31 13:43:38;;;;;;;18.10;6.43;;;5.20;99.90;;;;;;6100695;23;20093;-92
2022/01/31 13:46:15;;;;;;;21.17;7.65;;;5.20;99.90;;;;;;6101203;23;20009;-92
2022/01/31 13:48:58;;;;;;;18.55;6.82;;;5.20;99.90;;;;;;6102896;23;20010;-91
2022/01/31 13:51:38;;;;;;;14.48;5.07;;;5.20;99.90;;;;;;6128609;23;20028;-90
2022/01/31 13:54:08;;;;;;;16.75;5.40;;;5.20;99.90;;;;;;6105369;23;20032;-90
2022/01/31 13:56:35;;;;;;;16.25;5.32;;;5.30;99.90;;;;;;6107043;23;20104;-91